Orland, Noorwegen

10:05 AM CEST op 02 juli 2015 (GMT +0200)
Orland Air Base | | Change Station
CLOSE
Current Station
Luchthaven
Location: Orland,
Geometrische hoogte: 23 ft
Nabije weerstations

Hoogte 23 ft 63.70 °N, 9.60 °E | Updated 15 minutes ago

Mostly Cloudy
Merendeels bewolkt
66 °F
Voelt als 66 °F
N
15
Wind Variabel Wind van ZO

Vandaag
Hoog -- | Laag -- °F
--% Kans op neerslag
Gisteren
Hoog -- | Laag -- °F
Precip. -- inches
3:10 AM 11:39 PM
Volle maan, 100% visible
Druk 30.12 inches
Zicht 6.2 mijlen
Wolken Gering 500 ft
Merendeels bewolkt 20000 ft
Dauwpunt 57 °F
Vochtigheid 73%
Neerslag 0.00 inches
Dikte sneeuw Niet beschikbaar.
UV 2 van de 12
Pollen Niet beschikbaar.
Luchtkwaliteit Niet beschikbaar.
Flu Activity Niet beschikbaar.
METAR ENOL 020750Z 13013KT 9999 FEW005 BKN200 19/14 Q1020 NOSIG

More Conditions Fewer Conditions

Druk 30.12 inches
Zicht 6.2 mijlen
Wolken Gering 500 ft
Merendeels bewolkt 20000 ft
Dauwpunt 57 °F
Vochtigheid 73%
Neerslag 0.00 inches
Dikte sneeuw Niet beschikbaar.
UV 2 van de 12
Pollen Niet beschikbaar.
Luchtkwaliteit Niet beschikbaar.
Flu Activity Niet beschikbaar.
METAR ENOL 020750Z 13013KT 9999 FEW005 BKN200 19/14 Q1020 NOSIG

More Conditions Fewer Conditions

10-Day Weather Forecast

×

Almanac

Astronomie

Jul. 02, 2015 Opkomst Ondergang
Werkelijke tijd
Burgerlijke schemering
Nautische schemering
Astronomische schemering
Maan
Golflengte van het zichtbare licht
Daglengte
Tomorrow will be .
, % of the Moon is Illuminated

Extremen vandaag

Country Highs Country Lows

Community

WunderPhotos

Upload Photos

1,834,424 foto’s ge-upload!

WunderBlogs® & News

Nearby

Luchtkwaliteit

  Luchtkwaliteit LK-index Verontreinigende stof
Not available.

Dikte sneeuw

Station Depth Geometrische hoogte

Aardbevingen

Stad Distance Mag. Time & Date
Minimum magnitude displayed is 2.5.

Watertemperatuur langs de kust

Plaats Temperatuur

Stations

Nabije weerstations

Locatie station Temp. Gevoelstemperatuur Dauwpunt Vochtigheid Wind Precip. Hoogte Geactualiseerd Type